KUVA/UVA METAR and TAF weather

Enter ICAO airport designator
Station Type Date Time Source
KUVA METAR 2018/12/10 02:55 UTC NOAA

KUVA 100255Z AUTO 02004KT 10SM CLR 06/01 A3037 RMK AO2 T00640007


Station Type Date Time Source
KUVA Decoded METAR 2018/12/10 02:55 UTC NOAA

Uvalde, Garner Field Airport, TX, United States (KUVA) 29-12-40N 099-44-36W
Dec 09, 2018 - 09:55 PM EST / 2018.12.10 0255 UTC
Wind: from the NNE (020 degrees) at 5 MPH (4 KT):0
Visibility: 10 mile(s):0
Sky conditions: clear
Temperature: 43.5 F (6.4 C)
Dew Point: 33.3 F (0.7 C)
Relative Humidity: 66%
Pressure (altimeter): 30.37 in. Hg (1028 hPa)
ob: KUVA 100255Z AUTO 02004KT 10SM CLR 06/01 A3037 RMK AO2 T00640007
cycle: 3

Station Type Date Time Source
KUVA TAF UTC NOAA

Error!


Example: see airport list